Primorsko-Ahtarsk, Russia
Current Conditions -  °F | °C
As of 8:00 AM on Sunday 26 Oct 2014 (Local Time) from URKA Reporting Station
Clear Clear  
Wind Chill:   Ceiling: Unl
Heat Index: 27°   Visibility: 6mi
Dew Point: 21°   Wind: 38mph
Humidity: 80%   Direction: 80°E
Pressure: 30.24"   Gusts: 51mph
Location:  46.04°N, 38.18°E
Report Text: URKA 260500Z 08017G23MPS CAVOK M03/M06 Q1024 NOSIG RMKQFE764/1019 SC070
Loading
Personal Weather Stations






























Interactive Weather Map
Tropical Storm Tracking
New forecast layout! Learn more

10-Day Weather Forecast

Advertisements
Track Severe Weather on mobile